createdAt,value
2022-12-17T00:01:41.781Z,101296.75
2022-12-17T00:04:27.232Z,101291.41
2022-12-17T00:07:12.591Z,101295.06
2022-12-17T00:09:58.102Z,101298.44
2022-12-17T00:12:44.867Z,101297.00
2022-12-17T00:15:30.201Z,101293.34
2022-12-17T00:18:21.357Z,101300.28
2022-12-17T00:21:11.185Z,101302.13
2022-12-17T00:23:56.552Z,101302.13
2022-12-17T00:26:41.807Z,101295.88
2022-12-17T00:29:28.511Z,101287.03
2022-12-17T00:32:14.050Z,101287.03
2022-12-17T00:34:59.562Z,101286.03
2022-12-17T00:37:44.889Z,101280.66
2022-12-17T00:40:30.817Z,101280.66
2022-12-17T00:43:20.031Z,101276.16
2022-12-17T00:46:07.376Z,101250.72
2022-12-17T00:48:52.953Z,101269.06
2022-12-17T00:51:53.276Z,101275.31
2022-12-17T00:54:38.737Z,101283.34
2022-12-17T00:57:24.287Z,101288.72
2022-12-17T01:00:09.791Z,101298.44
2022-12-17T01:02:59.190Z,101298.44
2022-12-17T01:05:44.622Z,101301.88
2022-12-17T01:08:40.432Z,101310.91
2022-12-17T01:11:27.440Z,101311.16
2022-12-17T01:14:12.974Z,101309.16
2022-12-17T01:16:58.459Z,101314.53
2022-12-17T01:19:45.298Z,101302.97
2022-12-17T01:22:30.537Z,101302.97
2022-12-17T01:25:16.054Z,101303.81
2022-12-17T01:28:01.562Z,101309.16
2022-12-17T01:30:47.774Z,101319.91
2022-12-17T01:33:33.775Z,101322.59
2022-12-17T01:36:21.064Z,101333.31
2022-12-17T01:39:06.363Z,101327.94
2022-12-17T01:41:51.927Z,101319.91
2022-12-17T01:45:04.363Z,101319.06
2022-12-17T01:47:52.084Z,101311.97
2022-12-17T01:50:39.680Z,101300.41
2022-12-17T01:53:26.929Z,101311.16
2022-12-17T01:56:13.353Z,101324.56
2022-12-17T01:58:59.828Z,101320.88
2022-12-17T02:01:45.389Z,101315.53
2022-12-17T02:04:31.220Z,101315.41
2022-12-17T02:07:28.572Z,101325.25
2022-12-17T02:10:25.946Z,101319.91
2022-12-17T02:13:23.836Z,101319.91
2022-12-17T02:16:13.522Z,101326.25
2022-12-17T02:19:04.167Z,101314.53
2022-12-17T02:21:52.231Z,101323.56
2022-12-17T02:24:47.429Z,101321.00
2022-12-17T02:27:35.079Z,101309.41
2022-12-17T02:30:23.929Z,101319.06
2022-12-17T02:33:10.534Z,101307.47
2022-12-17T02:36:01.170Z,101310.16
2022-12-17T02:38:48.303Z,101310.16
2022-12-17T02:41:36.620Z,101310.16
2022-12-17T02:44:24.749Z,101309.66
2022-12-17T02:47:13.223Z,101327.13
2022-12-17T02:49:59.039Z,101318.19
2022-12-17T02:52:45.399Z,101316.50
2022-12-17T02:55:31.427Z,101311.16
2022-12-17T02:58:16.778Z,101305.78
2022-12-17T03:01:03.692Z,101305.78
2022-12-17T03:03:50.606Z,101299.44
2022-12-17T03:06:36.278Z,101302.13
2022-12-17T03:09:24.167Z,101302.13
2022-12-17T03:12:09.885Z,101296.75
2022-12-17T03:14:55.280Z,101295.88
2022-12-17T03:17:41.944Z,101295.06
2022-12-17T03:20:29.122Z,101280.66
2022-12-17T03:23:21.145Z,101270.94
2022-12-17T03:26:06.190Z,101269.94
2022-12-17T03:28:51.577Z,101263.72
2022-12-17T03:31:36.934Z,101268.25
2022-12-17T03:34:23.567Z,101261.03
2022-12-17T03:37:09.105Z,101275.31
2022-12-17T03:39:55.069Z,101268.25
2022-12-17T03:42:40.443Z,101263.72
2022-12-17T03:45:26.535Z,101268.25
2022-12-17T03:48:22.665Z,101274.44
2022-12-17T03:51:12.182Z,101268.25
2022-12-17T03:53:57.644Z,101275.31
2022-12-17T03:56:43.018Z,101286.03
2022-12-17T03:59:28.968Z,101292.25
2022-12-17T04:02:14.995Z,101289.56
2022-12-17T04:05:00.947Z,101288.59
2022-12-17T04:07:47.950Z,101293.09
2022-12-17T04:10:33.288Z,101294.94
2022-12-17T04:13:18.782Z,101310.03
2022-12-17T04:16:03.804Z,101314.53
2022-12-17T04:18:49.212Z,101321.63
2022-12-17T04:21:34.577Z,101325.25
2022-12-17T04:24:21.846Z,101316.25
2022-12-17T04:27:07.325Z,101314.53
2022-12-17T04:29:52.665Z,101320.75
2022-12-17T04:32:38.067Z,101314.53
2022-12-17T04:35:23.962Z,101313.69
2022-12-17T04:38:20.483Z,101305.53
2022-12-17T04:41:07.596Z,101294.81
2022-12-17T04:43:55.881Z,101294.81
2022-12-17T04:46:43.698Z,101284.09
2022-12-17T04:49:43.599Z,101269.94
2022-12-17T04:52:29.068Z,101266.28
2022-12-17T04:55:14.642Z,101262.63
2022-12-17T04:58:01.561Z,101259.97
2022-12-17T05:00:47.012Z,101251.91
2022-12-17T05:03:35.067Z,101253.84
2022-12-17T05:06:21.102Z,101250.06
2022-12-17T05:09:06.765Z,101248.25
2022-12-17T05:11:52.358Z,101242.88
2022-12-17T05:14:39.131Z,101244.81
2022-12-17T05:17:25.515Z,101240.19
2022-12-17T05:20:10.895Z,101253.59
2022-12-17T05:22:56.262Z,101245.56
2022-12-17T05:25:41.726Z,101237.53
2022-12-17T05:28:27.049Z,101244.56
2022-12-17T05:31:13.869Z,101250.06
2022-12-17T05:33:59.746Z,101253.59
2022-12-17T05:36:56.819Z,101254.47
2022-12-17T05:39:42.092Z,101248.25
2022-12-17T05:42:27.385Z,101250.94
2022-12-17T05:45:12.921Z,101239.22
2022-12-17T05:47:59.731Z,101235.81
2022-12-17T05:50:45.172Z,101241.91
2022-12-17T05:53:30.535Z,101236.41
2022-12-17T05:56:15.709Z,101224.00
2022-12-17T05:59:01.095Z,101238.25
2022-12-17T06:01:46.339Z,101239.94
2022-12-17T06:04:33.297Z,101246.31
2022-12-17T06:07:18.594Z,101242.63
2022-12-17T06:10:03.754Z,101246.31
2022-12-17T06:12:49.231Z,101235.56
2022-12-17T06:15:34.601Z,101251.66
2022-12-17T06:18:20.149Z,101242.63
2022-12-17T06:21:07.106Z,101237.28
2022-12-17T06:23:52.354Z,101238.97
2022-12-17T06:26:37.928Z,101240.69
2022-12-17T06:29:23.413Z,101235.31
2022-12-17T06:32:08.983Z,101239.22
2022-12-17T06:34:54.200Z,101249.69
2022-12-17T06:37:41.137Z,101255.06
2022-12-17T06:40:27.585Z,101261.28
2022-12-17T06:43:13.178Z,101266.63
2022-12-17T06:45:58.612Z,101264.34
2022-12-17T06:48:44.030Z,101278.22
2022-12-17T06:51:29.264Z,101260.72
2022-12-17T06:54:16.112Z,101267.75
2022-12-17T06:57:01.234Z,101272.00
2022-12-17T06:59:46.672Z,101271.13
2022-12-17T07:02:32.027Z,101278.47
2022-12-17T07:05:17.651Z,101274.56
2022-12-17T07:08:03.234Z,101279.19
2022-12-17T07:10:46.568Z,101278.22
2022-12-17T07:13:31.876Z,101283.59
2022-12-17T07:16:17.322Z,101272.88
2022-12-17T07:19:03.340Z,101267.50
2022-12-17T07:21:48.546Z,101283.59
2022-12-17T07:24:33.760Z,101285.28
2022-12-17T07:27:21.029Z,101296.88
2022-12-17T07:30:06.114Z,101295.03
2022-12-17T07:32:51.667Z,101296.72
2022-12-17T07:35:37.818Z,101297.69
2022-12-17T07:38:24.307Z,101303.94
2022-12-17T07:41:09.811Z,101297.69
2022-12-17T07:44:08.221Z,101310.13
2022-12-17T07:50:00.615Z,101303.06
2022-12-17T07:52:46.160Z,101303.06
2022-12-17T07:55:36.676Z,101282.38
2022-12-17T07:58:25.991Z,101292.34
2022-12-17T08:01:13.097Z,101239.13
2022-12-17T08:03:57.775Z,101297.94
2022-12-17T08:06:43.331Z,101303.06
2022-12-17T08:09:28.487Z,101306.75
2022-12-17T08:12:13.672Z,101314.66
2022-12-17T08:14:58.925Z,101303.06
2022-12-17T08:17:45.862Z,101315.47
2022-12-17T08:20:45.974Z,101317.22
2022-12-17T08:23:31.477Z,101317.22
2022-12-17T08:26:16.889Z,101310.13
2022-12-17T08:29:02.447Z,101301.63
2022-12-17T08:31:47.419Z,101324.28
2022-12-17T08:34:34.184Z,101292.38
2022-12-17T08:37:19.491Z,101329.63
2022-12-17T08:40:04.955Z,101323.28
2022-12-17T08:42:50.262Z,101328.78
2022-12-17T08:45:35.383Z,101335.25
2022-12-17T08:48:21.971Z,101311.16
2022-12-17T08:51:10.130Z,101342.06
2022-12-17T08:53:55.714Z,101342.06
2022-12-17T08:56:41.619Z,101321.00
2022-12-17T08:59:41.206Z,101347.66
2022-12-17T09:02:28.765Z,101346.84
2022-12-17T09:05:14.519Z,101353.03
2022-12-17T09:08:01.260Z,101349.41
2022-12-17T09:10:46.569Z,101305.78
2022-12-17T09:13:31.713Z,101355.72
2022-12-17T09:16:17.168Z,101353.03
2022-12-17T09:19:02.618Z,101353.03
2022-12-17T09:21:48.419Z,101340.59
2022-12-17T09:24:35.400Z,101352.06
2022-12-17T09:27:32.085Z,101357.44
2022-12-17T09:30:17.798Z,101353.03
2022-12-17T09:33:03.578Z,101353.03
2022-12-17T09:35:48.670Z,101365.47
2022-12-17T09:38:33.944Z,101365.47
2022-12-17T09:41:32.331Z,101362.81
2022-12-17T09:44:24.906Z,101353.88
2022-12-17T09:47:18.645Z,101350.34
2022-12-17T09:50:04.330Z,101344.28
2022-12-17T09:52:53.461Z,101357.44
2022-12-17T09:55:42.802Z,101360.13
2022-12-17T09:58:38.380Z,101364.63
2022-12-17T10:01:24.939Z,101364.63
2022-12-17T10:04:11.035Z,101363.75
2022-12-17T10:06:55.564Z,101365.47
2022-12-17T10:09:41.123Z,101319.44
2022-12-17T10:12:32.754Z,101355.72
2022-12-17T10:15:21.088Z,101356.00
2022-12-17T10:18:21.379Z,101310.31
2022-12-17T10:21:12.212Z,101362.91
2022-12-17T10:23:57.790Z,101367.41
2022-12-17T10:26:46.237Z,101361.06
2022-12-17T10:29:34.335Z,101345.50
2022-12-17T10:32:28.655Z,101336.47
2022-12-17T10:35:14.400Z,101357.56
2022-12-17T10:38:00.121Z,101361.06
2022-12-17T10:40:48.405Z,101364.63
2022-12-17T10:43:44.686Z,101369.13
2022-12-17T10:46:30.353Z,101372.78
2022-12-17T10:49:24.571Z,101377.16
2022-12-17T10:52:09.616Z,101373.66
2022-12-17T10:54:55.767Z,101377.91
2022-12-17T10:57:49.603Z,101376.22
2022-12-17T11:00:49.475Z,101372.53
2022-12-17T11:03:47.325Z,101347.81
2022-12-17T11:06:42.416Z,101367.19
2022-12-17T11:09:42.258Z,101332.84
2022-12-17T11:12:31.038Z,101355.59
2022-12-17T11:15:25.142Z,101374.47
2022-12-17T11:18:11.979Z,101383.38
2022-12-17T11:21:07.170Z,101378.03
2022-12-17T11:24:05.484Z,101338.69
2022-12-17T11:26:55.130Z,101367.19
2022-12-17T11:29:40.352Z,101364.75
2022-12-17T11:33:13.462Z,101368.88
2022-12-17T11:36:06.848Z,101374.22
2022-12-17T11:38:57.372Z,101351.59
2022-12-17T11:41:54.380Z,101387.78
2022-12-17T11:44:54.080Z,101387.88
2022-12-17T11:47:56.104Z,101382.69
2022-12-17T11:50:47.123Z,101382.53
2022-12-17T11:53:44.433Z,101381.56
2022-12-17T11:56:40.528Z,101392.31
2022-12-17T11:59:34.437Z,101381.56
2022-12-17T12:02:28.401Z,101380.72
2022-12-17T12:05:27.927Z,101371.97
2022-12-17T12:08:35.627Z,101377.91
2022-12-17T12:11:31.533Z,101372.78
2022-12-17T12:14:30.150Z,101377.91
2022-12-17T12:17:38.247Z,101383.28
2022-12-17T12:20:39.103Z,101386.94
2022-12-17T12:23:31.835Z,101385.22
2022-12-17T12:26:26.189Z,101390.56
2022-12-17T12:29:19.830Z,101403.03
2022-12-17T12:32:12.676Z,101402.16
2022-12-17T12:34:58.294Z,101399.59
2022-12-17T12:37:43.549Z,101419.13
2022-12-17T12:40:36.305Z,101420.81
2022-12-17T12:43:38.454Z,101415.44
2022-12-17T12:46:28.751Z,101412.75
2022-12-17T12:49:19.023Z,101412.75
2022-12-17T12:52:04.692Z,101385.97
2022-12-17T12:55:13.379Z,101367.19
2022-12-17T12:58:02.355Z,101399.34
2022-12-17T13:00:53.414Z,101397.03
2022-12-17T13:03:43.829Z,101417.16
2022-12-17T13:06:15.204Z,101415.44
2022-12-17T13:08:43.474Z,101367.69
2022-12-17T13:11:28.467Z,101359.13
2022-12-17T13:14:02.418Z,101406.41
2022-12-17T13:16:37.812Z,101418.88
2022-12-17T13:19:18.554Z,101399.59
2022-12-17T13:21:48.349Z,101416.19
2022-12-17T13:24:27.213Z,101406.41
2022-12-17T13:26:55.470Z,101375.13
2022-12-17T13:29:29.698Z,101411.53
2022-12-17T13:32:16.221Z,101399.13
2022-12-17T13:34:59.621Z,101361.94
2022-12-17T13:37:38.439Z,101399.13
2022-12-17T13:40:24.148Z,101398.25
2022-12-17T13:42:52.136Z,101360.38
2022-12-17T13:45:23.975Z,101409.84
2022-12-17T13:47:56.061Z,101406.16
2022-12-17T13:50:35.803Z,101410.69
2022-12-17T13:53:16.422Z,101415.22
2022-12-17T13:55:51.866Z,101413.38
2022-12-17T13:58:25.197Z,101406.41
2022-12-17T14:00:54.017Z,101385.97
2022-12-17T14:03:42.873Z,101413.50
2022-12-17T14:06:13.222Z,101421.31
2022-12-17T14:08:43.297Z,101412.53
2022-12-17T14:11:30.779Z,101413.25
2022-12-17T14:13:59.357Z,101418.63
2022-12-17T14:16:27.553Z,101414.97
2022-12-17T14:18:57.439Z,101420.56
2022-12-17T14:21:27.683Z,101424.00
2022-12-17T14:23:58.841Z,101418.63
2022-12-17T14:26:26.980Z,101399.84
2022-12-17T14:28:56.399Z,101399.25
2022-12-17T14:31:28.864Z,101434.47
2022-12-17T14:34:07.831Z,101425.69
2022-12-17T14:36:37.882Z,101438.13
2022-12-17T14:39:19.320Z,101438.13
2022-12-17T14:42:05.177Z,101394.25
2022-12-17T14:44:33.406Z,101429.34
2022-12-17T14:47:18.793Z,101427.38
2022-12-17T14:50:05.966Z,101432.75
2022-12-17T14:52:43.243Z,101420.81
2022-12-17T14:55:32.983Z,101429.13
2022-12-17T14:58:26.185Z,101425.69
2022-12-17T15:00:57.532Z,101387.66
2022-12-17T15:03:28.746Z,101438.13
2022-12-17T15:05:59.874Z,101435.44
2022-12-17T15:08:31.820Z,101438.97
2022-12-17T15:11:01.298Z,101434.72
2022-12-17T15:13:29.287Z,101438.13
2022-12-17T15:15:57.487Z,101436.41
2022-12-17T15:18:25.900Z,101445.19
2022-12-17T15:20:53.998Z,101440.09
2022-12-17T15:23:24.416Z,101439.84
2022-12-17T15:25:54.094Z,101416.56
2022-12-17T15:28:26.418Z,101439.84
2022-12-17T15:30:54.442Z,101436.41
2022-12-17T15:33:22.750Z,101426.91
2022-12-17T15:35:50.700Z,101434.72
2022-12-17T15:38:18.637Z,101439.84
2022-12-17T15:40:46.629Z,101403.25
2022-12-17T15:43:13.830Z,101442.41
2022-12-17T15:45:45.201Z,101430.81
2022-12-17T15:48:15.200Z,101441.53
2022-12-17T15:50:43.352Z,101436.16
2022-12-17T15:53:11.623Z,101441.53
2022-12-17T15:55:39.985Z,101449.59
2022-12-17T15:58:09.211Z,101424.97
2022-12-17T16:00:37.172Z,101446.91
2022-12-17T16:03:06.710Z,101446.91
2022-12-17T16:05:34.780Z,101441.53
2022-12-17T16:08:03.503Z,101446.91
2022-12-17T16:10:31.724Z,101445.19
2022-12-17T16:12:59.662Z,101436.16
2022-12-17T16:15:27.879Z,101429.13
2022-12-17T16:17:55.882Z,101436.16
2022-12-17T16:20:25.312Z,101425.44
2022-12-17T16:22:53.219Z,101442.41
2022-12-17T16:25:21.162Z,101434.47
2022-12-17T16:27:49.245Z,101441.53
2022-12-17T16:30:17.425Z,101441.53
2022-12-17T16:32:45.341Z,101442.41
2022-12-17T16:35:14.170Z,101441.53
2022-12-17T16:37:43.529Z,101444.09
2022-12-17T16:40:12.728Z,101451.41
2022-12-17T16:42:40.639Z,101390.34
2022-12-17T16:45:09.541Z,101388.63
2022-12-17T16:47:37.520Z,101452.03
2022-12-17T16:50:06.274Z,101444.97
2022-12-17T16:52:35.342Z,101448.59
2022-12-17T16:55:04.852Z,101449.47
2022-12-17T16:57:32.960Z,101455.69
2022-12-17T17:00:00.896Z,101456.53
2022-12-17T17:02:29.107Z,101463.72
2022-12-17T17:04:57.145Z,101453.97
2022-12-17T17:07:25.069Z,101459.31
2022-12-17T17:09:54.557Z,101453.97
2022-12-17T17:12:25.531Z,101448.84
2022-12-17T17:14:54.019Z,101447.13
2022-12-17T17:17:54.066Z,101456.19
2022-12-17T17:20:13.877Z,101457.63
2022-12-17T17:22:41.894Z,101458.50
2022-12-17T17:25:11.880Z,101457.63
2022-12-17T17:27:41.263Z,101460.31
2022-12-17T17:30:10.471Z,101452.50
2022-12-17T17:32:38.542Z,101464.69
2022-12-17T17:35:07.425Z,101472.75
2022-12-17T17:37:35.377Z,101464.69
2022-12-17T17:40:03.312Z,101463.84
2022-12-17T17:42:31.258Z,101475.41
2022-12-17T17:45:00.575Z,101465.69
2022-12-17T17:47:30.248Z,101464.69
2022-12-17T17:49:58.262Z,101470.91
2022-12-17T17:52:27.945Z,101460.56
2022-12-17T17:54:56.052Z,101470.06
2022-12-17T17:57:23.976Z,101462.00
2022-12-17T17:59:51.981Z,101465.69
2022-12-17T18:02:21.447Z,101468.34
2022-12-17T18:04:49.446Z,101423.13
2022-12-17T18:07:26.135Z,101457.63
2022-12-17T18:09:54.867Z,101447.63
2022-12-17T18:12:40.032Z,101462.13
2022-12-17T18:15:18.005Z,101458.63
2022-12-17T18:17:52.395Z,101464.69
2022-12-17T18:20:20.735Z,101457.63
2022-12-17T18:22:50.579Z,101464.69
2022-12-17T18:25:18.875Z,101449.31
2022-12-17T18:27:46.907Z,101461.88
2022-12-17T18:30:16.328Z,101448.13
2022-12-17T18:32:44.499Z,101451.16
2022-12-17T18:35:13.864Z,101463.13
2022-12-17T18:37:41.834Z,101458.59
2022-12-17T18:40:10.904Z,101454.09
2022-12-17T18:42:56.040Z,101468.97
2022-12-17T18:45:24.145Z,101458.09
2022-12-17T18:47:52.214Z,101461.66
2022-12-17T18:50:21.642Z,101450.09
2022-12-17T18:52:50.044Z,101472.25
2022-12-17T18:55:18.169Z,101467.13
2022-12-17T18:57:46.120Z,101475.31
2022-12-17T19:00:15.235Z,101472.75
2022-12-17T19:02:44.362Z,101472.00
2022-12-17T19:05:12.570Z,101473.00
2022-12-17T19:07:41.999Z,101489.09
2022-12-17T19:10:10.935Z,101490.06
2022-12-17T19:12:39.052Z,101492.75
2022-12-17T19:15:07.914Z,101484.84
2022-12-17T19:17:35.874Z,101484.84
2022-12-17T19:20:03.905Z,101483.84
2022-12-17T19:22:31.822Z,101463.72
2022-12-17T19:25:01.108Z,101487.50
2022-12-17T19:27:29.847Z,101489.34
2022-12-17T19:29:57.819Z,101478.59
2022-12-17T19:32:25.968Z,101458.13
2022-12-17T19:34:53.957Z,101493.72
2022-12-17T19:37:21.872Z,101488.34
2022-12-17T19:39:49.793Z,101490.19
2022-12-17T19:42:35.160Z,101483.09
2022-12-17T19:45:05.458Z,101465.66
2022-12-17T19:47:33.474Z,101460.06
2022-12-17T19:50:01.491Z,101491.03
2022-12-17T19:52:29.453Z,101485.66
2022-12-17T19:54:57.363Z,101471.78
2022-12-17T19:57:26.666Z,101485.66
2022-12-17T19:59:54.578Z,101478.59
2022-12-17T20:02:23.117Z,101482.28
2022-12-17T20:04:52.876Z,101479.59
2022-12-17T20:07:20.804Z,101466.19
2022-12-17T20:09:48.711Z,101465.19
2022-12-17T20:12:16.752Z,101475.19
2022-12-17T20:14:46.128Z,101476.91
2022-12-17T20:17:14.106Z,101476.91
2022-12-17T20:19:43.612Z,101478.72
2022-12-17T20:22:11.862Z,101478.22
2022-12-17T20:24:39.834Z,101470.69
2022-12-17T20:27:08.141Z,101482.28
2022-12-17T20:29:36.076Z,101448.34
2022-12-17T20:32:05.727Z,101478.59
2022-12-17T20:34:33.865Z,101474.09
2022-12-17T20:37:01.836Z,101484.84
2022-12-17T20:39:30.028Z,101483.97
2022-12-17T20:41:58.017Z,101496.41
2022-12-17T20:44:26.167Z,101492.00
2022-12-17T20:46:54.104Z,101493.72
2022-12-17T20:49:23.505Z,101492.88
2022-12-17T20:51:51.440Z,101483.34
2022-12-17T20:54:19.678Z,101482.03
2022-12-17T20:56:47.825Z,101482.03
2022-12-17T20:59:17.727Z,101499.06
2022-12-17T21:01:49.140Z,101518.72
2022-12-17T21:04:23.815Z,101512.50
2022-12-17T21:06:51.812Z,101523.22
2022-12-17T21:09:22.508Z,101516.16
2022-12-17T21:11:50.559Z,101518.09
2022-12-17T21:14:20.617Z,101522.38
2022-12-17T21:16:49.519Z,101518.84
2022-12-17T21:19:22.246Z,101516.16
2022-12-17T21:21:51.752Z,101483.47
2022-12-17T21:24:19.936Z,101515.28
2022-12-17T21:26:48.455Z,101504.56
2022-12-17T21:29:17.392Z,101506.28
2022-12-17T21:31:47.818Z,101516.16
2022-12-17T21:34:17.978Z,101510.78
2022-12-17T21:36:46.060Z,101503.72
2022-12-17T21:39:16.899Z,101516.16
2022-12-17T21:42:07.100Z,101514.22
2022-12-17T21:44:35.146Z,101502.75
2022-12-17T21:47:03.529Z,101517.03
2022-12-17T21:49:31.951Z,101511.91
2022-12-17T21:52:00.936Z,101517.84
2022-12-17T21:54:30.570Z,101513.47
2022-12-17T21:56:58.608Z,101514.47
2022-12-17T21:59:26.595Z,101496.50
2022-12-17T22:01:57.398Z,101495.69
2022-12-17T22:04:26.175Z,101471.88
2022-12-17T22:07:09.257Z,101495.56
2022-12-17T22:10:02.589Z,101515.28
2022-12-17T22:12:48.821Z,101503.72
2022-12-17T22:15:17.575Z,101510.03
2022-12-17T22:17:46.135Z,101516.16
2022-12-17T22:20:17.490Z,101511.78
2022-12-17T22:22:46.118Z,101521.53
2022-12-17T22:25:15.831Z,101525.19
2022-12-17T22:27:45.717Z,101519.81
2022-12-17T22:30:34.158Z,101516.16
2022-12-17T22:33:06.873Z,101524.19
2022-12-17T22:37:48.608Z,101509.94
2022-12-17T22:41:54.969Z,101517.25
2022-12-17T22:44:38.323Z,101521.53
2022-12-17T22:44:51.802Z,101507.13
2022-12-17T22:47:20.906Z,101503.72
2022-12-17T22:49:49.059Z,101521.53
2022-12-17T22:52:18.615Z,101532.25
2022-12-17T22:54:48.133Z,101506.28
2022-12-17T22:57:36.058Z,101507.13
2022-12-17T23:00:10.345Z,101512.50
2022-12-17T23:02:38.518Z,101523.47
2022-12-17T23:05:07.494Z,101518.84
2022-12-17T23:07:35.488Z,101508.09
2022-12-17T23:10:03.621Z,101512.72
2022-12-17T23:12:50.445Z,101499.06
2022-12-17T23:15:19.125Z,101506.28
2022-12-17T23:17:47.622Z,101485.41
2022-12-17T23:20:16.904Z,101524.94
2022-12-17T23:22:45.091Z,101501.75
2022-12-17T23:25:13.341Z,101498.94
2022-12-17T23:27:46.103Z,101516.91
2022-12-17T23:30:16.226Z,101510.53
2022-12-17T23:32:45.035Z,101512.25
2022-12-17T23:35:14.263Z,101495.66
2022-12-17T23:37:42.798Z,101508.84
2022-12-17T23:40:12.114Z,101466.66
2022-12-17T23:42:40.512Z,101510.53
2022-12-17T23:45:12.158Z,101518.59
2022-12-17T23:47:41.098Z,101507.88
2022-12-17T23:50:11.097Z,101503.50
2022-12-17T23:52:39.283Z,101493.59
2022-12-17T23:55:08.062Z,101494.94
2022-12-17T23:57:36.075Z,101490.78
